Time;durP1;ratioP1;P1;durP2;ratioP2;P2;SDS_P1;SDS_P2;PMS_P1;PMS_P2;Temp;Humidity;BMP_temperature;BMP_pressure;BME280_temperature;BME280_humidity;BME280_pressure;Samples;Min_cycle;Max_cycle;Signal;HPM_P1;HPM_P2
2021/03/16 00:02:28;;;;;;;;;;;5.80;99.90;;;;;;13183413;22;20325;-87
2021/03/16 00:07:30;;;;;;;;;;;6.10;99.90;;;;;;13156468;22;19922;-87
2021/03/16 00:12:31;;;;;;;;;;;7.00;99.90;;;;;;13156504;22;20005;-87
2021/03/16 00:17:33;;;;;;;;;;;5.70;99.90;;;;;;13154817;22;19925;-87
2021/03/16 00:22:34;;;;;;;;;;;6.70;99.90;;;;;;13155578;22;19930;-87
2021/03/16 00:27:48;;;;;;;;;;;5.70;99.90;;;;;;13135230;22;19985;-87
2021/03/16 00:32:49;;;;;;;;;;;5.70;99.90;;;;;;13156085;22;19985;-87
2021/03/16 00:37:50;;;;;;;;;;;6.20;99.90;;;;;;13183613;22;19955;-87
2021/03/16 00:42:52;;;;;;;;;;;5.70;99.90;;;;;;13182607;22;20343;-87
2021/03/16 00:47:53;;;;;;;;;;;5.70;99.90;;;;;;13154919;22;19925;-87
2021/03/16 00:52:55;;;;;;;;;;;5.60;99.90;;;;;;13129047;22;19945;-87
2021/03/16 00:58:09;;;;;;;;;;;7.60;99.90;;;;;;13158085;22;19918;-86
2021/03/16 01:03:10;;;;;;;;;;;5.50;99.90;;;;;;13183507;22;19968;-87
2021/03/16 01:08:12;;;;;;;;;;;7.70;99.90;;;;;;13155129;22;20285;-87
2021/03/16 01:13:13;;;;;;;;;;;5.50;99.90;;;;;;13155906;22;19942;-87
2021/03/16 01:18:15;;;;;;;;;;;6.40;99.90;;;;;;13154710;22;19925;-87
2021/03/16 01:23:16;;;;;;;;;;;7.10;99.90;;;;;;13155465;22;19918;-87
2021/03/16 01:28:35;;;;;;;;;;;5.50;99.90;;;;;;13159598;22;19922;-87
2021/03/16 01:33:37;;;;;;;;;;;6.80;99.90;;;;;;13154297;22;20350;-87
2021/03/16 01:38:38;;;;;;;;;;;5.50;99.90;;;;;;13129378;22;19997;-87
2021/03/16 01:43:39;;;;;;;;;;;5.40;99.90;;;;;;13184265;22;20314;-88
2021/03/16 01:48:41;;;;;;;;;;;5.40;99.90;;;;;;13160189;22;19944;-87
2021/03/16 01:53:42;;;;;;;;;;;5.50;99.90;;;;;;13133590;22;19918;-87
2021/03/16 01:58:59;;;;;;;;;;;5.50;99.90;;;;;;13139300;22;19926;-87
2021/03/16 02:04:01;;;;;;;;;;;5.50;99.90;;;;;;13158210;22;19941;-87
2021/03/16 02:09:09;;;;;;;;;;;5.40;99.90;;;;;;13157690;22;19924;-87
2021/03/16 02:14:10;;;;;;;;;;;5.40;99.90;;;;;;13184095;22;20243;-87
2021/03/16 02:19:21;;;;;;;;;;;5.50;99.90;;;;;;13156539;22;20285;-93
2021/03/16 02:24:25;;;;;;;;;;;5.50;99.90;;;;;;13160244;22;19985;-93
2021/03/16 02:29:29;;;;;;;;;;;5.50;99.90;;;;;;13160155;22;19945;-93
2021/03/16 02:34:33;;;;;;;;;;;6.10;99.90;;;;;;13160168;22;19941;-93
2021/03/16 02:39:36;;;;;;;;;;;5.60;99.90;;;;;;13159523;22;20001;-93
2021/03/16 02:44:38;;;;;;;;;;;5.80;99.90;;;;;;13158427;22;19919;-92
2021/03/16 02:49:41;;;;;;;;;;;5.80;99.90;;;;;;13159091;22;20378;-93
2021/03/16 02:54:43;;;;;;;;;;;5.80;99.90;;;;;;13159879;22;19946;-93
2021/03/16 02:59:45;;;;;;;;;;;5.50;99.90;;;;;;13159787;22;19926;-92
2021/03/16 03:04:47;;;;;;;;;;;5.40;99.90;;;;;;13132702;22;19936;-92
2021/03/16 03:09:48;;;;;;;;;;;6.60;99.90;;;;;;13132912;22;19946;-92
2021/03/16 03:14:49;;;;;;;;;;;5.60;99.90;;;;;;13158840;22;20319;-93
2021/03/16 03:19:50;;;;;;;;;;;7.20;99.90;;;;;;13132464;22;19919;-94
2021/03/16 03:24:58;;;;;;;;;;;5.40;99.90;;;;;;13132361;22;20433;-93
2021/03/16 03:30:05;;;;;;;;;;;5.40;99.90;;;;;;13160020;22;19933;-93
2021/03/16 03:35:07;;;;;;;;;;;5.40;99.90;;;;;;13133138;22;19918;-94
2021/03/16 03:40:10;;;;;;;;;;;5.50;99.90;;;;;;13158959;22;19940;-93
2021/03/16 03:45:12;;;;;;;;;;;5.40;99.90;;;;;;13158191;22;19930;-94
2021/03/16 03:50:14;;;;;;;;;;;5.40;99.90;;;;;;13158148;22;19942;-92
2021/03/16 03:55:16;;;;;;;;;;;5.50;99.90;;;;;;13132528;22;19922;-93
2021/03/16 04:00:29;;;;;;;;;;;7.00;99.90;;;;;;13161058;22;19918;-93
2021/03/16 04:05:30;;;;;;;;;;;5.50;99.90;;;;;;13157813;22;19922;-93
2021/03/16 04:10:35;;;;;;;;;;;7.20;99.90;;;;;;13156175;22;20370;-93
2021/03/16 04:15:37;;;;;;;;;;;5.70;99.90;;;;;;13131594;22;19925;-93
2021/03/16 04:20:39;;;;;;;;;;;5.60;99.90;;;;;;13131474;22;19919;-93
2021/03/16 04:25:40;;;;;;;;;;;5.40;99.90;;;;;;13132261;22;19918;-93
2021/03/16 04:30:48;;;;;;;;;;;5.70;99.90;;;;;;13135833;22;19917;-93
2021/03/16 04:35:50;;;;;;;;;;;6.30;99.90;;;;;;13130982;22;19986;-92
2021/03/16 04:40:51;;;;;;;;;;;6.70;99.90;;;;;;13156750;22;19957;-92
2021/03/16 04:45:53;;;;;;;;;;;6.10;99.90;;;;;;13156620;22;20298;-92
2021/03/16 04:50:54;;;;;;;;;;;6.40;99.90;;;;;;13131828;22;19918;-93
2021/03/16 04:55:56;;;;;;;;;;;6.60;99.90;;;;;;13132050;22;19938;-92
2021/03/16 05:01:11;;;;;;;;;;;5.40;99.90;;;;;;13136740;22;19924;-93
2021/03/16 05:06:12;;;;;;;;;;;5.70;99.90;;;;;;13156646;22;20038;-92
2021/03/16 05:11:13;;;;;;;;;;;6.30;99.90;;;;;;13156853;22;19989;-93
2021/03/16 05:16:15;;;;;;;;;;;5.40;99.90;;;;;;13132204;22;19919;-93
2021/03/16 05:21:16;;;;;;;;;;;6.90;99.90;;;;;;13161184;22;20224;-92
2021/03/16 05:26:18;;;;;;;;;;;6.70;99.90;;;;;;13135714;22;19985;-93
2021/03/16 05:31:35;;;;;;;;;;;6.60;99.90;;;;;;13142809;22;20000;-92
2021/03/16 05:36:36;;;;;;;;;;;5.40;99.90;;;;;;13135732;22;19993;-93
2021/03/16 05:41:40;;;;;;;;;;;5.40;99.90;;;;;;13134567;22;20319;-94
2021/03/16 05:46:41;;;;;;;;;;;6.40;99.90;;;;;;13136065;22;19950;-93
2021/03/16 05:51:43;;;;;;;;;;;5.40;99.90;;;;;;13134211;22;19918;-93
2021/03/16 05:56:44;;;;;;;;;;;5.40;99.90;;;;;;13160927;22;19946;-93
2021/03/16 06:01:57;;;;;;;;;;;5.50;99.90;;;;;;13162824;22;19925;-92
2021/03/16 06:06:59;;;;;;;;;;;5.50;99.90;;;;;;13134267;22;19918;-92
2021/03/16 06:12:00;;;;;;;;;;;5.60;99.90;;;;;;13134811;22;19918;-93
2021/03/16 06:17:05;;;;;;;;;;;6.60;99.90;;;;;;13135541;22;19922;-93
2021/03/16 06:22:07;;;;;;;;;;;5.50;99.90;;;;;;13133809;22;20395;-93
2021/03/16 06:27:19;;;;;;;;;;;5.50;99.90;;;;;;13159622;22;19997;-93
2021/03/16 06:32:20;;;;;;;;;;;6.00;99.90;;;;;;13159168;22;19934;-94
2021/03/16 06:37:22;;;;;;;;;;;5.70;99.90;;;;;;13158940;22;19924;-93
2021/03/16 06:42:24;;;;;;;;;;;6.60;99.90;;;;;;13158939;22;19944;-94
2021/03/16 06:47:26;;;;;;;;;;;5.70;99.90;;;;;;13131690;22;19925;-92
2021/03/16 06:52:27;;;;;;;;;;;6.50;99.90;;;;;;13159761;22;19918;-93
2021/03/16 06:57:28;;;;;;;;;;;7.50;99.90;;;;;;13133201;22;20390;-94
2021/03/16 07:02:43;;;;;;;;;;;8.60;99.90;;;;;;13139735;22;19930;-94
2021/03/16 07:07:45;;;;;;;;;;;8.60;99.90;;;;;;13133233;22;19972;-93
2021/03/16 07:12:47;;;;;;;;;;;8.00;99.90;;;;;;13186414;22;19929;-92
2021/03/16 07:17:49;;;;;;;;;;;7.30;99.90;;;;;;13132856;22;20323;-93
2021/03/16 07:22:51;;;;;;;;;;;8.40;99.90;;;;;;13157373;22;19918;-93
2021/03/16 07:27:53;;;;;;;;;;;6.90;99.90;;;;;;13131031;22;19942;-93
2021/03/16 07:33:06;;;;;;;;;;;6.80;99.90;;;;;;13160523;22;19971;-93
2021/03/16 07:38:08;;;;;;;;;;;6.90;99.90;;;;;;13159191;22;19918;-94
2021/03/16 07:43:13;;;;;;;;;;;6.90;99.90;;;;;;13131143;22;20243;-90
2021/03/16 07:48:18;;;;;;;;;;;7.70;99.90;;;;;;13156066;22;20365;-90
2021/03/16 07:53:23;;;;;;;;;;;6.90;99.90;;;;;;13157809;22;19982;-93
2021/03/16 07:58:26;;;;;;;;;;;6.90;99.90;;;;;;13185726;22;19922;-94
2021/03/16 08:03:31;;;;;;;;;;;7.50;99.90;;;;;;13185771;22;19967;-93
2021/03/16 08:08:37;;;;;;;;;;;7.50;99.90;;;;;;13157514;22;19941;-93
2021/03/16 08:13:39;;;;;;;;;;;7.10;99.90;;;;;;13132572;22;19919;-93
2021/03/16 08:18:41;;;;;;;;;;;7.10;99.90;;;;;;13154570;22;19925;-89
2021/03/16 08:23:42;;;;;;;;;;;7.10;99.90;;;;;;13155701;22;20296;-89
2021/03/16 08:28:47;;;;;;;;;;;7.00;99.90;;;;;;13183121;22;20394;-89
2021/03/16 08:33:59;;;;;;;;;;;7.00;99.90;;;;;;13157905;22;19925;-89
2021/03/16 08:39:00;;;;;;;;;;;7.00;99.90;;;;;;13156413;22;19949;-89
2021/03/16 08:44:02;;;;;;;;;;;7.10;99.90;;;;;;13156676;22;19918;-90
2021/03/16 08:49:04;;;;;;;;;;;7.30;99.90;;;;;;13155347;22;19964;-89
2021/03/16 08:54:05;;;;;;;;;;;7.40;99.90;;;;;;13154714;22;19971;-88
2021/03/16 08:59:07;;;;;;;;;;;7.70;99.90;;;;;;13154612;22;19922;-90
2021/03/16 09:04:24;;;;;;;;;;;7.70;99.90;;;;;;13136464;22;19918;-90
2021/03/16 09:09:27;;;;;;;;;;;8.10;99.90;;;;;;13129830;22;19926;-91
2021/03/16 09:14:28;;;;;;;;;;;8.10;99.90;;;;;;13128954;22;19985;-90
2021/03/16 09:19:32;;;;;;;;;;;8.40;99.90;;;;;;13154770;22;20291;-92
2021/03/16 09:24:33;;;;;;;;;;;8.50;99.90;;;;;;13155911;22;19925;-90
2021/03/16 09:29:36;;;;;;;;;;;8.70;99.90;;;;;;13183277;22;19918;-91
2021/03/16 09:34:49;;;;;;;;;;;9.80;99.90;;;;;;13157291;22;19919;-90
2021/03/16 09:40:00;;;;;;;;;;;10.50;99.90;;;;;;13128586;22;19997;-90
2021/03/16 09:45:03;;;;;;;;;;;10.20;99.90;;;;;;13128597;22;20224;-90
2021/03/16 09:50:13;;;;;;;;;;;9.20;99.90;;;;;;13156683;22;19918;-90
2021/03/16 09:55:17;;;;;;;;;;;9.10;99.90;;;;;;13154507;22;20001;-90
2021/03/16 10:00:21;;;;;;;;;;;8.70;99.90;;;;;;13154351;22;20281;-90
2021/03/16 10:05:22;;;;;;;;;;;8.60;99.90;;;;;;13152170;22;19992;-90
2021/03/16 10:10:24;;;;;;;;;;;8.90;99.90;;;;;;13125037;22;19989;-90
2021/03/16 10:15:36;;;;;;;;;;;8.70;99.90;;;;;;13128079;22;19922;-90
2021/03/16 10:20:39;;;;;;;;;;;8.60;99.90;;;;;;13154340;22;19925;-90
2021/03/16 10:25:40;;;;;;;;;;;8.80;99.90;;;;;;13156721;22;20005;-90
2021/03/16 10:30:43;;;;;;;;;;;9.20;99.90;;;;;;13131888;22;19989;-90
2021/03/16 10:35:45;;;;;;;;;;;9.40;99.90;;;;;;13157740;22;19926;-91
2021/03/16 10:40:47;;;;;;;;;;;9.80;99.90;;;;;;13157486;22;19926;-89
2021/03/16 10:45:48;;;;;;;;;;;9.30;99.90;;;;;;13180714;22;19918;-89
2021/03/16 10:50:50;;;;;;;;;;;10.20;99.90;;;;;;13130783;22;19926;-88
2021/03/16 10:55:52;;;;;;;;;;;8.90;99.90;;;;;;13157355;22;19922;-89
2021/03/16 11:00:54;;;;;;;;;;;9.20;99.90;;;;;;13130604;22;20261;-89
2021/03/16 11:06:03;;;;;;;;;;;10.30;99.90;;;;;;13130491;22;19940;-88
2021/03/16 11:11:05;;;;;;;;;;;11.60;99.90;;;;;;13157973;22;19922;-89
2021/03/16 11:16:07;;;;;;;;;;;10.90;99.90;;;;;;13159279;22;19941;-89
2021/03/16 11:21:09;;;;;;;;;;;10.60;99.90;;;;;;13157305;22;19918;-89
2021/03/16 11:26:10;;;;;;;;;;;10.70;99.90;;;;;;13157004;22;19987;-88
2021/03/16 11:31:11;;;;;;;;;;;10.50;99.90;;;;;;13157595;22;19918;-89
2021/03/16 11:36:26;;;;;;;;;;;10.10;99.90;;;;;;13159823;22;20250;-88
2021/03/16 11:41:27;;;;;;;;;;;9.90;99.90;;;;;;13154023;22;19928;-91
2021/03/16 11:46:29;;;;;;;;;;;9.40;99.90;;;;;;13122722;22;20009;-91
2021/03/16 11:51:30;;;;;;;;;;;8.90;99.90;;;;;;13123874;22;19972;-91
2021/03/16 11:56:32;;;;;;;;;;;9.50;99.90;;;;;;13128939;22;19990;-91
2021/03/16 12:01:33;;;;;;;;;;;10.60;99.90;;;;;;13155968;22;19918;-91
2021/03/16 12:06:48;;;;;;;;;;;10.20;99.90;;;;;;13183935;22;19918;-91
2021/03/16 12:11:49;;;;;;;;;;;9.90;99.90;;;;;;13131400;22;20323;-91
2021/03/16 12:16:50;;;;;;;;;;;9.80;99.90;;;;;;13130114;22;19918;-90
2021/03/16 12:21:52;;;;;;;;;;;9.70;99.90;;;;;;13156217;22;19918;-91
2021/03/16 12:26:53;;;;;;;;;;;9.80;99.90;;;;;;13156476;22;19989;-92
2021/03/16 12:31:54;;;;;;;;;;;9.60;99.90;;;;;;13130744;22;19950;-91
2021/03/16 12:37:12;;;;;;;;;;;9.60;99.90;;;;;;13160280;22;19925;-91
2021/03/16 12:42:14;;;;;;;;;;;9.50;99.90;;;;;;13182153;22;19957;-91
2021/03/16 12:47:15;;;;;;;;;;;9.90;99.90;;;;;;13121411;22;19989;-91
2021/03/16 12:52:17;;;;;;;;;;;9.80;99.90;;;;;;13145871;22;19926;-91
2021/03/16 12:57:18;;;;;;;;;;;9.60;99.90;;;;;;13176845;22;20394;-90
2021/03/16 13:02:19;;;;;;;;;;;9.60;99.90;;;;;;13126421;22;20319;-90
2021/03/16 13:07:33;;;;;;;;;;;9.70;99.90;;;;;;13157173;22;19918;-91
2021/03/16 13:12:34;;;;;;;;;;;9.50;99.90;;;;;;13129603;22;19949;-91
2021/03/16 13:17:36;;;;;;;;;;;9.50;99.90;;;;;;13154620;22;19965;-91
2021/03/16 13:22:38;;;;;;;;;;;9.90;99.90;;;;;;13154856;22;20680;-89
2021/03/16 13:27:40;;;;;;;;;;;9.50;99.90;;;;;;13154612;22;19918;-89
2021/03/16 13:32:41;;;;;;;;;;;9.20;99.90;;;;;;13181736;22;20347;-89
2021/03/16 13:38:01;;;;;;;;;;;10.60;99.90;;;;;;13138294;22;19925;-90
2021/03/16 13:43:03;;;;;;;;;;;9.40;99.90;;;;;;13158412;22;20342;-90
2021/03/16 13:48:04;;;;;;;;;;;9.10;99.90;;;;;;13158868;22;20220;-90
2021/03/16 13:53:06;;;;;;;;;;;8.90;99.90;;;;;;13159292;22;19922;-89
2021/03/16 13:58:08;;;;;;;;;;;8.80;99.90;;;;;;13159265;22;19925;-89
2021/03/16 14:03:09;;;;;;;;;;;8.70;99.90;;;;;;13133200;22;19945;-88
2021/03/16 14:08:14;;;;;;;;;;;8.70;99.90;;;;;;13159868;22;19918;-89
2021/03/16 14:13:15;;;;;;;;;;;8.80;99.90;;;;;;13132820;22;19938;-89
2021/03/16 14:18:17;;;;;;;;;;;8.60;99.90;;;;;;13132246;22;19932;-89
2021/03/16 14:23:18;;;;;;;;;;;8.00;99.90;;;;;;13131589;22;19918;-89
2021/03/16 14:28:20;;;;;;;;;;;7.70;99.90;;;;;;13158463;22;19919;-89
2021/03/16 14:33:21;;;;;;;;;;;7.90;99.90;;;;;;13130079;22;19925;-92
2021/03/16 14:38:22;;;;;;;;;;;7.90;99.90;;;;;;13158022;22;19925;-91
2021/03/16 14:43:24;;;;;;;;;;;7.60;99.90;;;;;;13158389;22;19950;-91
2021/03/16 14:48:25;;;;;;;;;;;8.10;99.90;;;;;;13131457;22;20239;-91
2021/03/16 14:53:27;;;;;;;;;;;9.40;99.90;;;;;;13133001;22;19940;-89
2021/03/16 14:58:28;;;;;;;;;;;7.90;99.90;;;;;;13157699;22;19918;-87
2021/03/16 15:03:29;;;;;;;;;;;7.80;99.90;;;;;;13185314;22;20340;-90
2021/03/16 15:08:38;;;;;;;;;;;7.70;99.90;;;;;;13133188;22;19918;-90
2021/03/16 15:13:39;;;;;;;;;;;7.60;99.90;;;;;;13157781;22;19922;-89
2021/03/16 15:18:40;;;;;;;;;;;8.40;99.90;;;;;;13156093;22;19922;-90
2021/03/16 15:23:42;;;;;;;;;;;8.00;99.90;;;;;;13131492;22;19922;-90
2021/03/16 15:28:44;;;;;;;;;;;8.40;99.90;;;;;;13156404;22;19918;-89
2021/03/16 15:33:46;;;;;;;;;;;7.50;99.90;;;;;;13157156;22;19922;-91
2021/03/16 15:38:48;;;;;;;;;;;7.60;99.90;;;;;;13155835;22;19936;-91
2021/03/16 15:43:50;;;;;;;;;;;7.40;99.90;;;;;;13131234;22;19922;-89
2021/03/16 15:48:51;;;;;;;;;;;7.20;99.90;;;;;;13155457;22;19918;-88
2021/03/16 15:53:54;;;;;;;;;;;8.20;99.90;;;;;;13152464;22;19918;-89
2021/03/16 15:58:55;;;;;;;;;;;8.60;99.90;;;;;;13157914;22;19918;-90
2021/03/16 16:03:56;;;;;;;;;;;7.20;99.90;;;;;;13130399;22;19934;-89
2021/03/16 16:08:58;;;;;;;;;;;6.90;99.90;;;;;;13127931;22;20291;-90
2021/03/16 16:13:59;;;;;;;;;;;6.70;99.90;;;;;;13128849;22;19918;-91
2021/03/16 16:19:01;;;;;;;;;;;7.30;99.90;;;;;;13157072;22;19964;-89
2021/03/16 16:24:02;;;;;;;;;;;6.60;99.90;;;;;;13129246;22;19918;-88
2021/03/16 16:29:04;;;;;;;;;;;6.30;99.90;;;;;;13155832;22;19952;-88
2021/03/16 16:34:05;;;;;;;;;;;6.50;99.90;;;;;;13155050;22;19926;-87
2021/03/16 16:39:07;;;;;;;;;;;6.60;99.90;;;;;;13157789;22;20319;-89
2021/03/16 16:44:09;;;;;;;;;;;6.50;99.90;;;;;;13129324;22;19946;-88
2021/03/16 16:49:10;;;;;;;;;;;6.50;99.90;;;;;;13155461;22;19945;-88
2021/03/16 16:54:12;;;;;;;;;;;6.90;99.90;;;;;;13129138;22;19919;-88
2021/03/16 16:59:13;;;;;;;;;;;6.20;99.90;;;;;;13128023;22;19918;-88
2021/03/16 17:04:14;;;;;;;;;;;6.20;99.90;;;;;;13154896;22;19946;-88
2021/03/16 17:09:16;;;;;;;;;;;6.30;99.90;;;;;;13155868;22;19989;-88
2021/03/16 17:14:17;;;;;;;;;;;6.20;99.90;;;;;;13183417;22;19958;-88
2021/03/16 17:19:19;;;;;;;;;;;6.20;99.90;;;;;;13127340;22;19997;-88
2021/03/16 17:24:21;;;;;;;;;;;6.20;99.90;;;;;;13123761;22;19970;-88
2021/03/16 17:29:23;;;;;;;;;;;6.10;99.90;;;;;;13125859;22;20268;-87
2021/03/16 17:34:24;;;;;;;;;;;6.10;99.90;;;;;;13148777;22;19996;-88
2021/03/16 17:39:26;;;;;;;;;;;6.30;99.90;;;;;;13124499;22;19929;-88
2021/03/16 17:44:27;;;;;;;;;;;6.00;99.90;;;;;;13123316;22;20000;-87
2021/03/16 17:49:28;;;;;;;;;;;6.80;99.90;;;;;;13126922;22;20543;-87
2021/03/16 17:54:30;;;;;;;;;;;5.70;99.90;;;;;;13157847;22;20374;-88
2021/03/16 17:59:31;;;;;;;;;;;5.70;99.90;;;;;;13126398;22;19922;-87
2021/03/16 18:04:32;;;;;;;;;;;7.10;99.90;;;;;;13149225;22;19925;-88
2021/03/16 18:09:35;;;;;;;;;;;5.60;99.90;;;;;;13128141;22;19928;-87
2021/03/16 18:14:37;;;;;;;;;;;6.90;99.90;;;;;;13154245;22;19971;-87
2021/03/16 18:19:38;;;;;;;;;;;6.60;99.90;;;;;;13131585;22;20001;-87
2021/03/16 18:24:42;;;;;;;;;;;5.60;99.90;;;;;;13185629;22;19918;-89
2021/03/16 18:29:43;;;;;;;;;;;7.20;99.90;;;;;;13132108;22;19997;-88
2021/03/16 18:34:45;;;;;;;;;;;6.40;99.90;;;;;;13131109;22;19918;-88
2021/03/16 18:39:47;;;;;;;;;;;5.50;99.90;;;;;;13130639;22;19996;-88
2021/03/16 18:44:48;;;;;;;;;;;5.50;99.90;;;;;;13125683;22;19974;-88
2021/03/16 18:49:49;;;;;;;;;;;5.60;99.90;;;;;;13122886;22;19926;-88
2021/03/16 18:54:51;;;;;;;;;;;5.50;99.90;;;;;;13185156;22;19919;-88
2021/03/16 18:59:52;;;;;;;;;;;7.10;99.90;;;;;;13130195;22;20358;-88
2021/03/16 19:04:54;;;;;;;;;;;6.00;99.90;;;;;;13130822;22;20701;-88
2021/03/16 19:09:55;;;;;;;;;;;6.50;99.90;;;;;;13156108;22;19919;-88
2021/03/16 19:14:57;;;;;;;;;;;7.40;99.90;;;;;;13156663;22;20331;-88
2021/03/16 19:19:58;;;;;;;;;;;5.60;99.90;;;;;;13130477;22;19967;-88
2021/03/16 19:24:59;;;;;;;;;;;5.50;99.90;;;;;;13156457;22;20433;-88
2021/03/16 19:30:01;;;;;;;;;;;5.50;99.90;;;;;;13130455;22;20054;-88
2021/03/16 19:35:04;;;;;;;;;;;5.40;99.90;;;;;;13156447;22;19989;-88
2021/03/16 19:40:06;;;;;;;;;;;5.40;99.90;;;;;;13157046;22;19925;-87
2021/03/16 19:45:08;;;;;;;;;;;5.40;99.90;;;;;;13156337;22;19987;-88
2021/03/16 19:50:10;;;;;;;;;;;5.30;99.90;;;;;;13155897;22;19921;-88
2021/03/16 19:55:11;;;;;;;;;;;5.30;99.90;;;;;;13177376;22;20246;-88
2021/03/16 20:00:13;;;;;;;;;;;5.20;99.90;;;;;;13146235;22;19941;-88
2021/03/16 20:05:14;;;;;;;;;;;5.30;99.90;;;;;;13126888;22;19922;-87
2021/03/16 20:10:16;;;;;;;;;;;5.20;99.90;;;;;;13126933;22;19957;-88
2021/03/16 20:15:17;;;;;;;;;;;5.30;99.90;;;;;;13129412;22;19918;-88
2021/03/16 20:20:18;;;;;;;;;;;5.30;99.90;;;;;;13184032;22;19949;-88
2021/03/16 20:25:20;;;;;;;;;;;5.20;99.90;;;;;;13155212;22;20351;-87
2021/03/16 20:30:21;;;;;;;;;;;5.20;99.90;;;;;;13182454;22;20628;-87
2021/03/16 22:27:32;;;;;;;;;;;4.90;99.90;;;;;;13182937;22;19919;-88
2021/03/16 22:32:33;;;;;;;;;;;4.90;99.90;;;;;;13158554;22;19918;-87
2021/03/16 22:37:35;;;;;;;;;;;5.70;99.90;;;;;;13155517;22;19938;-88
2021/03/16 22:42:36;;;;;;;;;;;4.80;99.90;;;;;;13184206;22;20001;-88
2021/03/16 22:47:38;;;;;;;;;;;4.70;99.90;;;;;;13183808;22;19953;-87
2021/03/16 22:52:39;;;;;;;;;;;4.90;99.90;;;;;;13183004;22;19918;-87
2021/03/16 22:57:40;;;;;;;;;;;4.70;99.90;;;;;;13157490;22;20243;-88
2021/03/16 23:02:43;;;;;;;;;;;4.70;99.90;;;;;;13183544;22;20273;-88
2021/03/16 23:07:45;;;;;;;;;;;6.10;99.90;;;;;;13185761;22;19918;-88
2021/03/16 23:12:48;;;;;;;;;;;4.60;99.90;;;;;;13181795;22;20240;-88
2021/03/16 23:17:50;;;;;;;;;;;4.40;99.90;;;;;;13181995;22;19925;-88
2021/03/16 23:22:51;;;;;;;;;;;4.40;99.90;;;;;;13156198;22;19918;-88
2021/03/16 23:27:53;;;;;;;;;;;4.40;99.90;;;;;;13157803;22;19946;-88
2021/03/16 23:32:54;;;;;;;;;;;4.40;99.90;;;;;;13183834;22;19925;-88
2021/03/16 23:37:56;;;;;;;;;;;4.50;99.90;;;;;;13184171;22;20388;-88
2021/03/16 23:42:57;;;;;;;;;;;5.40;99.90;;;;;;13157567;22;19975;-88
2021/03/16 23:47:59;;;;;;;;;;;4.40;99.90;;;;;;13157410;22;19918;-88
2021/03/16 23:53:01;;;;;;;;;;;4.50;99.90;;;;;;13182301;22;19922;-88
2021/03/16 23:58:03;;;;;;;;;;;4.40;99.90;;;;;;13155982;22;19988;-88
